sensor_id;sensor_type;location;lat;lon;timestamp;temperature;humidity
34572;DHT22;20808;48.974;8.452;2022-10-31T00:00:13;13.00;1.00
34572;DHT22;20808;48.974;8.452;2022-10-31T00:02:40;13.00;1.00
34572;DHT22;20808;48.974;8.452;2022-10-31T00:05:07;13.00;1.00
34572;DHT22;20808;48.974;8.452;2022-10-31T00:07:34;13.10;1.00
34572;DHT22;20808;48.974;8.452;2022-10-31T00:10:02;13.00;1.00
34572;DHT22;20808;48.974;8.452;2022-10-31T00:12:29;13.00;1.00
34572;DHT22;20808;48.974;8.452;2022-10-31T00:14:56;13.00;1.00
34572;DHT22;20808;48.974;8.452;2022-10-31T00:17:23;12.90;1.00
34572;DHT22;20808;48.974;8.452;2022-10-31T00:19:50;12.80;1.00
34572;DHT22;20808;48.974;8.452;2022-10-31T00:22:16;12.50;24.20
34572;DHT22;20808;48.974;8.452;2022-10-31T00:24:43;12.30;99.90
34572;DHT22;20808;48.974;8.452;2022-10-31T00:27:11;12.10;99.90
34572;DHT22;20808;48.974;8.452;2022-10-31T00:29:38;12.10;99.90
34572;DHT22;20808;48.974;8.452;2022-10-31T00:32:05;12.20;99.90
34572;DHT22;20808;48.974;8.452;2022-10-31T00:34:31;12.30;99.90
34572;DHT22;20808;48.974;8.452;2022-10-31T00:36:58;12.40;99.90
34572;DHT22;20808;48.974;8.452;2022-10-31T00:39:25;12.50;67.40
34572;DHT22;20808;48.974;8.452;2022-10-31T00:41:52;12.50;48.30
34572;DHT22;20808;48.974;8.452;2022-10-31T00:44:20;12.30;48.00
34572;DHT22;20808;48.974;8.452;2022-10-31T00:46:47;12.30;99.90
34572;DHT22;20808;48.974;8.452;2022-10-31T00:49:13;12.20;99.90
34572;DHT22;20808;48.974;8.452;2022-10-31T00:51:40;12.10;99.90
34572;DHT22;20808;48.974;8.452;2022-10-31T00:54:07;12.10;99.90
34572;DHT22;20808;48.974;8.452;2022-10-31T00:56:34;12.00;99.90
34572;DHT22;20808;48.974;8.452;2022-10-31T00:59:01;11.90;99.90
34572;DHT22;20808;48.974;8.452;2022-10-31T01:01:29;11.70;99.90
34572;DHT22;20808;48.974;8.452;2022-10-31T01:03:56;11.50;99.90
34572;DHT22;20808;48.974;8.452;2022-10-31T01:06:22;11.30;99.90
34572;DHT22;20808;48.974;8.452;2022-10-31T01:08:49;11.10;99.90
34572;DHT22;20808;48.974;8.452;2022-10-31T01:11:18;10.90;99.90
34572;DHT22;20808;48.974;8.452;2022-10-31T01:13:45;10.80;99.90
34572;DHT22;20808;48.974;8.452;2022-10-31T01:16:14;10.70;99.90
34572;DHT22;20808;48.974;8.452;2022-10-31T01:18:43;10.60;99.90
34572;DHT22;20808;48.974;8.452;2022-10-31T01:21:12;10.50;99.90
34572;DHT22;20808;48.974;8.452;2022-10-31T01:23:39;10.50;99.90
34572;DHT22;20808;48.974;8.452;2022-10-31T01:26:08;10.40;99.90
34572;DHT22;20808;48.974;8.452;2022-10-31T01:28:36;10.40;99.90
34572;DHT22;20808;48.974;8.452;2022-10-31T01:31:05;10.20;99.90
34572;DHT22;20808;48.974;8.452;2022-10-31T01:33:32;10.20;99.90
34572;DHT22;20808;48.974;8.452;2022-10-31T01:36:00;10.20;99.90
34572;DHT22;20808;48.974;8.452;2022-10-31T01:38:27;10.20;99.90
34572;DHT22;20808;48.974;8.452;2022-10-31T01:40:54;10.10;99.90
34572;DHT22;20808;48.974;8.452;2022-10-31T01:43:21;10.10;99.90
34572;DHT22;20808;48.974;8.452;2022-10-31T01:45:51;10.10;99.90
34572;DHT22;20808;48.974;8.452;2022-10-31T01:48:21;10.10;99.90
34572;DHT22;20808;48.974;8.452;2022-10-31T01:50:53;10.10;99.90
34572;DHT22;20808;48.974;8.452;2022-10-31T01:53:22;10.10;99.90
34572;DHT22;20808;48.974;8.452;2022-10-31T01:55:50;10.10;99.90
34572;DHT22;20808;48.974;8.452;2022-10-31T01:58:19;10.00;99.90
34572;DHT22;20808;48.974;8.452;2022-10-31T02:00:49;10.00;99.90
34572;DHT22;20808;48.974;8.452;2022-10-31T02:03:17;10.00;99.90
34572;DHT22;20808;48.974;8.452;2022-10-31T02:05:45;9.90;99.90
34572;DHT22;20808;48.974;8.452;2022-10-31T02:08:15;9.80;99.90
34572;DHT22;20808;48.974;8.452;2022-10-31T02:10:45;9.80;99.90
34572;DHT22;20808;48.974;8.452;2022-10-31T02:13:14;9.80;99.90
34572;DHT22;20808;48.974;8.452;2022-10-31T02:15:42;9.80;99.90
34572;DHT22;20808;48.974;8.452;2022-10-31T02:18:10;9.80;99.90
34572;DHT22;20808;48.974;8.452;2022-10-31T02:20:43;9.80;99.90
34572;DHT22;20808;48.974;8.452;2022-10-31T02:23:30;9.80;99.90
34572;DHT22;20808;48.974;8.452;2022-10-31T02:26:28;9.80;99.90
34572;DHT22;20808;48.974;8.452;2022-10-31T02:29:27;9.70;99.90
34572;DHT22;20808;48.974;8.452;2022-10-31T02:32:02;9.70;99.90
34572;DHT22;20808;48.974;8.452;2022-10-31T02:34:36;9.70;99.90
34572;DHT22;20808;48.974;8.452;2022-10-31T02:37:11;9.70;99.90
34572;DHT22;20808;48.974;8.452;2022-10-31T02:39:46;9.70;99.90
34572;DHT22;20808;48.974;8.452;2022-10-31T02:42:18;9.70;99.90
34572;DHT22;20808;48.974;8.452;2022-10-31T02:44:51;9.70;99.90
34572;DHT22;20808;48.974;8.452;2022-10-31T02:47:24;9.80;99.90
34572;DHT22;20808;48.974;8.452;2022-10-31T02:49:56;9.80;99.90
34572;DHT22;20808;48.974;8.452;2022-10-31T02:52:26;9.90;99.90
34572;DHT22;20808;48.974;8.452;2022-10-31T02:54:53;10.00;99.90
34572;DHT22;20808;48.974;8.452;2022-10-31T02:57:23;9.80;99.90
34572;DHT22;20808;48.974;8.452;2022-10-31T02:59:55;9.70;99.90
34572;DHT22;20808;48.974;8.452;2022-10-31T03:02:33;9.70;99.90
34572;DHT22;20808;48.974;8.452;2022-10-31T03:08:07;9.60;99.90
34572;DHT22;20808;48.974;8.452;2022-10-31T03:10:40;9.50;99.90
34572;DHT22;20808;48.974;8.452;2022-10-31T03:13:13;9.50;99.90
34572;DHT22;20808;48.974;8.452;2022-10-31T03:15:43;9.60;99.90
34572;DHT22;20808;48.974;8.452;2022-10-31T03:18:15;9.70;99.90
34572;DHT22;20808;48.974;8.452;2022-10-31T03:20:47;9.80;99.90
34572;DHT22;20808;48.974;8.452;2022-10-31T03:23:18;10.10;99.90
34572;DHT22;20808;48.974;8.452;2022-10-31T03:25:46;10.20;99.90
34572;DHT22;20808;48.974;8.452;2022-10-31T03:28:17;10.30;99.90
34572;DHT22;20808;48.974;8.452;2022-10-31T03:30:45;10.40;99.90
34572;DHT22;20808;48.974;8.452;2022-10-31T03:33:17;10.50;99.90
34572;DHT22;20808;48.974;8.452;2022-10-31T03:35:47;10.60;99.90
34572;DHT22;20808;48.974;8.452;2022-10-31T03:38:15;10.70;99.90
34572;DHT22;20808;48.974;8.452;2022-10-31T03:40:44;10.70;99.90
34572;DHT22;20808;48.974;8.452;2022-10-31T03:43:16;10.70;99.90
34572;DHT22;20808;48.974;8.452;2022-10-31T03:45:45;10.50;99.90
34572;DHT22;20808;48.974;8.452;2022-10-31T03:48:16;10.20;99.90
34572;DHT22;20808;48.974;8.452;2022-10-31T03:50:50;9.90;99.90
34572;DHT22;20808;48.974;8.452;2022-10-31T03:53:24;9.80;99.90
34572;DHT22;20808;48.974;8.452;2022-10-31T03:55:56;9.70;99.90
34572;DHT22;20808;48.974;8.452;2022-10-31T03:58:28;9.60;99.90
34572;DHT22;20808;48.974;8.452;2022-10-31T04:00:59;9.60;99.90
34572;DHT22;20808;48.974;8.452;2022-10-31T04:03:31;9.60;99.90
34572;DHT22;20808;48.974;8.452;2022-10-31T04:06:02;9.60;99.90
34572;DHT22;20808;48.974;8.452;2022-10-31T04:08:31;9.90;99.90
34572;DHT22;20808;48.974;8.452;2022-10-31T04:11:00;10.00;99.90
34572;DHT22;20808;48.974;8.452;2022-10-31T04:13:31;9.90;99.90
34572;DHT22;20808;48.974;8.452;2022-10-31T04:15:59;9.80;99.90
34572;DHT22;20808;48.974;8.452;2022-10-31T04:18:27;9.70;99.90
34572;DHT22;20808;48.974;8.452;2022-10-31T04:21:04;9.70;99.90
34572;DHT22;20808;48.974;8.452;2022-10-31T04:23:32;9.80;99.90
34572;DHT22;20808;48.974;8.452;2022-10-31T04:25:59;9.90;99.90
34572;DHT22;20808;48.974;8.452;2022-10-31T04:28:26;10.20;99.90
34572;DHT22;20808;48.974;8.452;2022-10-31T04:30:53;10.20;99.90
34572;DHT22;20808;48.974;8.452;2022-10-31T04:33:20;10.20;99.90
34572;DHT22;20808;48.974;8.452;2022-10-31T04:35:48;10.20;99.90
34572;DHT22;20808;48.974;8.452;2022-10-31T04:38:15;10.10;99.90
34572;DHT22;20808;48.974;8.452;2022-10-31T04:40:42;10.10;99.90
34572;DHT22;20808;48.974;8.452;2022-10-31T04:43:08;10.10;99.90
34572;DHT22;20808;48.974;8.452;2022-10-31T04:45:35;10.30;99.90
34572;DHT22;20808;48.974;8.452;2022-10-31T04:48:04;10.60;99.90
34572;DHT22;20808;48.974;8.452;2022-10-31T04:50:31;10.60;99.90
34572;DHT22;20808;48.974;8.452;2022-10-31T04:52:59;10.50;99.90
34572;DHT22;20808;48.974;8.452;2022-10-31T04:55:26;10.50;99.90
34572;DHT22;20808;48.974;8.452;2022-10-31T04:57:52;10.30;99.90
34572;DHT22;20808;48.974;8.452;2022-10-31T05:00:21;10.20;99.90
34572;DHT22;20808;48.974;8.452;2022-10-31T05:02:49;10.30;99.90
34572;DHT22;20808;48.974;8.452;2022-10-31T05:05:17;10.50;99.90
34572;DHT22;20808;48.974;8.452;2022-10-31T05:07:46;10.60;99.90
34572;DHT22;20808;48.974;8.452;2022-10-31T05:10:16;10.50;99.90
34572;DHT22;20808;48.974;8.452;2022-10-31T05:12:47;10.50;99.90
34572;DHT22;20808;48.974;8.452;2022-10-31T05:15:18;10.40;99.90
34572;DHT22;20808;48.974;8.452;2022-10-31T05:17:45;10.30;99.90
34572;DHT22;20808;48.974;8.452;2022-10-31T05:20:13;10.30;99.90
34572;DHT22;20808;48.974;8.452;2022-10-31T05:22:42;10.40;99.90
34572;DHT22;20808;48.974;8.452;2022-10-31T05:25:10;10.50;99.90
34572;DHT22;20808;48.974;8.452;2022-10-31T05:27:40;10.50;99.90
34572;DHT22;20808;48.974;8.452;2022-10-31T05:30:07;10.60;99.90
34572;DHT22;20808;48.974;8.452;2022-10-31T05:32:37;10.60;99.90
34572;DHT22;20808;48.974;8.452;2022-10-31T05:35:05;10.60;99.90
34572;DHT22;20808;48.974;8.452;2022-10-31T05:37:33;10.60;99.90
34572;DHT22;20808;48.974;8.452;2022-10-31T05:40:00;10.60;99.90
34572;DHT22;20808;48.974;8.452;2022-10-31T05:42:27;10.70;99.90
34572;DHT22;20808;48.974;8.452;2022-10-31T05:44:55;10.60;99.90
34572;DHT22;20808;48.974;8.452;2022-10-31T05:47:22;10.60;99.90
34572;DHT22;20808;48.974;8.452;2022-10-31T05:49:49;10.50;99.90
34572;DHT22;20808;48.974;8.452;2022-10-31T05:52:16;10.50;99.90
34572;DHT22;20808;48.974;8.452;2022-10-31T05:54:43;10.30;99.90
34572;DHT22;20808;48.974;8.452;2022-10-31T05:57:09;10.20;99.90
34572;DHT22;20808;48.974;8.452;2022-10-31T05:59:36;9.90;99.90
34572;DHT22;20808;48.974;8.452;2022-10-31T06:02:04;9.70;99.90
34572;DHT22;20808;48.974;8.452;2022-10-31T06:04:31;9.50;99.90
34572;DHT22;20808;48.974;8.452;2022-10-31T06:06:58;9.40;99.90
34572;DHT22;20808;48.974;8.452;2022-10-31T06:09:26;9.30;99.90
34572;DHT22;20808;48.974;8.452;2022-10-31T06:11:53;9.20;99.90
34572;DHT22;20808;48.974;8.452;2022-10-31T06:14:20;9.10;99.90
34572;DHT22;20808;48.974;8.452;2022-10-31T06:16:46;9.20;99.90
34572;DHT22;20808;48.974;8.452;2022-10-31T06:19:14;9.40;99.90
34572;DHT22;20808;48.974;8.452;2022-10-31T06:21:42;9.40;99.90
34572;DHT22;20808;48.974;8.452;2022-10-31T06:24:08;9.30;99.90
34572;DHT22;20808;48.974;8.452;2022-10-31T06:26:35;9.30;99.90
34572;DHT22;20808;48.974;8.452;2022-10-31T06:29:02;9.30;99.90
34572;DHT22;20808;48.974;8.452;2022-10-31T06:31:29;9.30;99.90
34572;DHT22;20808;48.974;8.452;2022-10-31T06:33:56;9.30;99.90
34572;DHT22;20808;48.974;8.452;2022-10-31T06:36:24;9.30;99.90
34572;DHT22;20808;48.974;8.452;2022-10-31T06:38:51;9.40;99.90
34572;DHT22;20808;48.974;8.452;2022-10-31T06:41:18;9.50;99.90
34572;DHT22;20808;48.974;8.452;2022-10-31T06:43:46;9.60;99.90
34572;DHT22;20808;48.974;8.452;2022-10-31T06:46:13;9.70;99.90
34572;DHT22;20808;48.974;8.452;2022-10-31T06:48:40;9.80;99.90
34572;DHT22;20808;48.974;8.452;2022-10-31T06:51:07;9.80;99.90
34572;DHT22;20808;48.974;8.452;2022-10-31T06:53:35;9.80;99.90
34572;DHT22;20808;48.974;8.452;2022-10-31T06:56:02;9.80;99.90
34572;DHT22;20808;48.974;8.452;2022-10-31T06:58:29;9.80;99.90
34572;DHT22;20808;48.974;8.452;2022-10-31T07:00:58;9.80;99.90
34572;DHT22;20808;48.974;8.452;2022-10-31T07:03:25;9.90;99.90
34572;DHT22;20808;48.974;8.452;2022-10-31T07:05:54;9.80;99.90
34572;DHT22;20808;48.974;8.452;2022-10-31T07:08:21;9.90;99.90
34572;DHT22;20808;48.974;8.452;2022-10-31T07:10:53;9.90;99.90
34572;DHT22;20808;48.974;8.452;2022-10-31T07:13:20;10.00;99.90
34572;DHT22;20808;48.974;8.452;2022-10-31T07:15:50;10.00;99.90
34572;DHT22;20808;48.974;8.452;2022-10-31T07:18:17;10.00;99.90
34572;DHT22;20808;48.974;8.452;2022-10-31T07:20:44;10.10;99.90
34572;DHT22;20808;48.974;8.452;2022-10-31T07:23:11;10.10;99.90
34572;DHT22;20808;48.974;8.452;2022-10-31T07:25:38;10.20;99.90
34572;DHT22;20808;48.974;8.452;2022-10-31T07:28:07;10.30;99.90
34572;DHT22;20808;48.974;8.452;2022-10-31T07:30:34;10.50;99.90
34572;DHT22;20808;48.974;8.452;2022-10-31T07:33:01;10.50;99.90
34572;DHT22;20808;48.974;8.452;2022-10-31T07:35:28;10.70;99.90
34572;DHT22;20808;48.974;8.452;2022-10-31T07:37:55;10.80;99.90
34572;DHT22;20808;48.974;8.452;2022-10-31T07:40:23;11.00;99.90
34572;DHT22;20808;48.974;8.452;2022-10-31T07:42:51;11.20;99.90
34572;DHT22;20808;48.974;8.452;2022-10-31T07:45:20;11.50;99.90
34572;DHT22;20808;48.974;8.452;2022-10-31T07:47:48;11.70;99.90
34572;DHT22;20808;48.974;8.452;2022-10-31T07:50:17;11.90;99.90
34572;DHT22;20808;48.974;8.452;2022-10-31T07:52:44;12.10;99.90
34572;DHT22;20808;48.974;8.452;2022-10-31T07:55:12;12.30;92.30
34572;DHT22;20808;48.974;8.452;2022-10-31T07:57:39;12.50;7.30
34572;DHT22;20808;48.974;8.452;2022-10-31T08:00:08;12.70;1.00
34572;DHT22;20808;48.974;8.452;2022-10-31T08:02:36;12.80;1.00
34572;DHT22;20808;48.974;8.452;2022-10-31T08:05:04;13.10;1.00
34572;DHT22;20808;48.974;8.452;2022-10-31T08:07:35;13.30;1.00
34572;DHT22;20808;48.974;8.452;2022-10-31T08:10:03;13.50;99.90
34572;DHT22;20808;48.974;8.452;2022-10-31T08:12:30;13.60;1.00
34572;DHT22;20808;48.974;8.452;2022-10-31T08:14:57;13.70;1.00
34572;DHT22;20808;48.974;8.452;2022-10-31T08:17:24;13.90;1.00
34572;DHT22;20808;48.974;8.452;2022-10-31T08:19:52;14.00;99.90
34572;DHT22;20808;48.974;8.452;2022-10-31T08:22:19;14.30;99.90
34572;DHT22;20808;48.974;8.452;2022-10-31T08:24:46;14.50;1.00
34572;DHT22;20808;48.974;8.452;2022-10-31T08:27:12;14.70;89.00
34572;DHT22;20808;48.974;8.452;2022-10-31T08:29:39;14.80;1.00
34572;DHT22;20808;48.974;8.452;2022-10-31T08:32:06;14.90;99.90
34572;DHT22;20808;48.974;8.452;2022-10-31T08:34:33;15.20;1.00
34572;DHT22;20808;48.974;8.452;2022-10-31T08:37:01;15.40;99.90
34572;DHT22;20808;48.974;8.452;2022-10-31T08:39:28;15.50;1.00
34572;DHT22;20808;48.974;8.452;2022-10-31T08:41:54;15.70;99.90
34572;DHT22;20808;48.974;8.452;2022-10-31T08:44:21;16.00;1.00
34572;DHT22;20808;48.974;8.452;2022-10-31T08:46:48;16.40;99.90
34572;DHT22;20808;48.974;8.452;2022-10-31T08:49:15;16.70;1.00
34572;DHT22;20808;48.974;8.452;2022-10-31T08:51:41;17.00;1.00
34572;DHT22;20808;48.974;8.452;2022-10-31T08:54:10;17.10;1.00
34572;DHT22;20808;48.974;8.452;2022-10-31T08:56:36;16.70;1.00
34572;DHT22;20808;48.974;8.452;2022-10-31T08:59:03;16.60;1.00
34572;DHT22;20808;48.974;8.452;2022-10-31T09:01:30;16.80;1.00
34572;DHT22;20808;48.974;8.452;2022-10-31T09:03:57;17.00;1.00
34572;DHT22;20808;48.974;8.452;2022-10-31T09:06:23;17.00;1.00
34572;DHT22;20808;48.974;8.452;2022-10-31T09:08:50;17.30;1.00
34572;DHT22;20808;48.974;8.452;2022-10-31T09:11:18;17.50;1.00
34572;DHT22;20808;48.974;8.452;2022-10-31T09:13:45;17.40;1.00
34572;DHT22;20808;48.974;8.452;2022-10-31T09:16:12;17.60;1.00
34572;DHT22;20808;48.974;8.452;2022-10-31T09:18:39;17.20;1.00
34572;DHT22;20808;48.974;8.452;2022-10-31T09:21:05;17.10;1.00
34572;DHT22;20808;48.974;8.452;2022-10-31T09:23:32;17.10;1.00
34572;DHT22;20808;48.974;8.452;2022-10-31T09:26:00;17.10;1.00
34572;DHT22;20808;48.974;8.452;2022-10-31T09:28:28;17.00;1.00
34572;DHT22;20808;48.974;8.452;2022-10-31T09:30:55;17.20;1.00
34572;DHT22;20808;48.974;8.452;2022-10-31T09:33:22;17.30;1.00
34572;DHT22;20808;48.974;8.452;2022-10-31T09:35:49;17.60;99.90
34572;DHT22;20808;48.974;8.452;2022-10-31T09:38:17;17.50;99.90
34572;DHT22;20808;48.974;8.452;2022-10-31T09:40:47;17.20;1.00
34572;DHT22;20808;48.974;8.452;2022-10-31T09:43:21;17.20;1.00
34572;DHT22;20808;48.974;8.452;2022-10-31T09:46:00;17.30;1.00
34572;DHT22;20808;48.974;8.452;2022-10-31T09:48:43;17.50;1.00
34572;DHT22;20808;48.974;8.452;2022-10-31T09:51:13;17.70;99.90
34572;DHT22;20808;48.974;8.452;2022-10-31T09:53:45;18.30;99.90
34572;DHT22;20808;48.974;8.452;2022-10-31T09:56:15;18.80;99.90
34572;DHT22;20808;48.974;8.452;2022-10-31T09:58:45;18.80;99.90
34572;DHT22;20808;48.974;8.452;2022-10-31T10:01:29;19.00;99.90
34572;DHT22;20808;48.974;8.452;2022-10-31T10:04:01;18.90;99.90
34572;DHT22;20808;48.974;8.452;2022-10-31T10:06:29;18.90;99.90
34572;DHT22;20808;48.974;8.452;2022-10-31T10:08:59;18.80;99.90
34572;DHT22;20808;48.974;8.452;2022-10-31T10:11:43;18.90;99.90
34572;DHT22;20808;48.974;8.452;2022-10-31T10:14:32;18.90;99.90
34572;DHT22;20808;48.974;8.452;2022-10-31T10:17:13;18.80;99.90
34572;DHT22;20808;48.974;8.452;2022-10-31T10:20:05;18.40;99.90
34572;DHT22;20808;48.974;8.452;2022-10-31T10:22:42;18.10;99.90
34572;DHT22;20808;48.974;8.452;2022-10-31T10:25:16;18.10;99.90
34572;DHT22;20808;48.974;8.452;2022-10-31T10:27:56;18.40;99.90
34572;DHT22;20808;48.974;8.452;2022-10-31T10:30:32;18.30;99.90
34572;DHT22;20808;48.974;8.452;2022-10-31T10:33:05;18.30;99.90
34572;DHT22;20808;48.974;8.452;2022-10-31T10:35:36;18.70;99.90
34572;DHT22;20808;48.974;8.452;2022-10-31T10:38:13;18.80;99.90
34572;DHT22;20808;48.974;8.452;2022-10-31T10:40:42;19.00;99.90
34572;DHT22;20808;48.974;8.452;2022-10-31T10:43:20;19.10;99.90
34572;DHT22;20808;48.974;8.452;2022-10-31T10:45:50;19.30;99.90
34572;DHT22;20808;48.974;8.452;2022-10-31T10:48:42;19.30;99.90
34572;DHT22;20808;48.974;8.452;2022-10-31T10:51:21;19.10;99.90
34572;DHT22;20808;48.974;8.452;2022-10-31T10:54:01;19.30;99.90
34572;DHT22;20808;48.974;8.452;2022-10-31T10:56:44;19.50;99.90
34572;DHT22;20808;48.974;8.452;2022-10-31T10:59:18;19.40;99.90
34572;DHT22;20808;48.974;8.452;2022-10-31T11:01:48;19.50;99.90
34572;DHT22;20808;48.974;8.452;2022-10-31T11:04:29;19.80;99.90
34572;DHT22;20808;48.974;8.452;2022-10-31T11:06:58;20.00;99.90
34572;DHT22;20808;48.974;8.452;2022-10-31T11:09:25;20.30;99.90
34572;DHT22;20808;48.974;8.452;2022-10-31T11:11:52;19.80;99.90
34572;DHT22;20808;48.974;8.452;2022-10-31T11:14:20;19.80;99.90
34572;DHT22;20808;48.974;8.452;2022-10-31T11:16:51;19.80;99.90
34572;DHT22;20808;48.974;8.452;2022-10-31T11:19:23;19.70;99.90
34572;DHT22;20808;48.974;8.452;2022-10-31T11:21:50;19.70;99.90
34572;DHT22;20808;48.974;8.452;2022-10-31T11:24:19;19.80;99.90
34572;DHT22;20808;48.974;8.452;2022-10-31T11:26:48;19.80;99.90
34572;DHT22;20808;48.974;8.452;2022-10-31T11:29:17;19.60;99.90
34572;DHT22;20808;48.974;8.452;2022-10-31T11:31:46;19.60;99.90
34572;DHT22;20808;48.974;8.452;2022-10-31T11:34:18;19.60;99.90
34572;DHT22;20808;48.974;8.452;2022-10-31T11:36:49;19.70;99.90
34572;DHT22;20808;48.974;8.452;2022-10-31T11:39:18;19.50;99.90
34572;DHT22;20808;48.974;8.452;2022-10-31T11:41:47;19.30;99.90
34572;DHT22;20808;48.974;8.452;2022-10-31T11:44:18;19.50;99.90
34572;DHT22;20808;48.974;8.452;2022-10-31T11:46:48;19.50;99.90
34572;DHT22;20808;48.974;8.452;2022-10-31T11:49:18;19.30;99.90
34572;DHT22;20808;48.974;8.452;2022-10-31T11:51:51;19.50;99.90
34572;DHT22;20808;48.974;8.452;2022-10-31T11:54:21;19.50;99.90
34572;DHT22;20808;48.974;8.452;2022-10-31T11:56:50;19.50;99.90
34572;DHT22;20808;48.974;8.452;2022-10-31T11:59:22;19.70;99.90
34572;DHT22;20808;48.974;8.452;2022-10-31T12:01:51;19.70;99.90
34572;DHT22;20808;48.974;8.452;2022-10-31T12:04:18;19.80;99.90
34572;DHT22;20808;48.974;8.452;2022-10-31T12:06:51;19.70;99.90
34572;DHT22;20808;48.974;8.452;2022-10-31T12:09:21;19.20;99.90
34572;DHT22;20808;48.974;8.452;2022-10-31T12:12:02;18.80;99.90
34572;DHT22;20808;48.974;8.452;2022-10-31T12:14:37;18.70;99.90
34572;DHT22;20808;48.974;8.452;2022-10-31T12:17:13;19.00;99.90
34572;DHT22;20808;48.974;8.452;2022-10-31T12:19:44;19.20;99.90
34572;DHT22;20808;48.974;8.452;2022-10-31T12:22:20;19.40;99.90
34572;DHT22;20808;48.974;8.452;2022-10-31T12:25:17;19.50;99.90
34572;DHT22;20808;48.974;8.452;2022-10-31T12:27:59;19.50;99.90
34572;DHT22;20808;48.974;8.452;2022-10-31T12:30:34;19.60;99.90
34572;DHT22;20808;48.974;8.452;2022-10-31T12:33:19;19.60;99.90
34572;DHT22;20808;48.974;8.452;2022-10-31T12:35:55;19.50;99.90
34572;DHT22;20808;48.974;8.452;2022-10-31T12:38:41;19.40;99.90
34572;DHT22;20808;48.974;8.452;2022-10-31T12:41:21;19.20;99.90
34572;DHT22;20808;48.974;8.452;2022-10-31T12:43:56;19.20;99.90
34572;DHT22;20808;48.974;8.452;2022-10-31T12:46:42;18.90;99.90
34572;DHT22;20808;48.974;8.452;2022-10-31T12:49:38;18.90;99.90
34572;DHT22;20808;48.974;8.452;2022-10-31T12:52:22;18.70;99.90
34572;DHT22;20808;48.974;8.452;2022-10-31T12:55:11;18.80;99.90
34572;DHT22;20808;48.974;8.452;2022-10-31T12:57:44;18.90;99.90
34572;DHT22;20808;48.974;8.452;2022-10-31T13:00:13;19.10;99.90
34572;DHT22;20808;48.974;8.452;2022-10-31T13:02:44;19.70;99.90
34572;DHT22;20808;48.974;8.452;2022-10-31T13:05:17;21.20;99.90
34572;DHT22;20808;48.974;8.452;2022-10-31T13:07:48;22.90;96.00
34572;DHT22;20808;48.974;8.452;2022-10-31T13:10:22;24.10;51.60
34572;DHT22;20808;48.974;8.452;2022-10-31T13:12:54;24.50;27.50
34572;DHT22;20808;48.974;8.452;2022-10-31T13:15:23;24.20;20.70
34572;DHT22;20808;48.974;8.452;2022-10-31T13:17:53;23.80;13.80
34572;DHT22;20808;48.974;8.452;2022-10-31T13:20:25;23.20;11.80
34572;DHT22;20808;48.974;8.452;2022-10-31T13:22:56;22.70;7.70
34572;DHT22;20808;48.974;8.452;2022-10-31T13:25:28;22.30;12.00
34572;DHT22;20808;48.974;8.452;2022-10-31T13:28:00;22.50;12.90
34572;DHT22;20808;48.974;8.452;2022-10-31T13:30:29;22.90;14.10
34572;DHT22;20808;48.974;8.452;2022-10-31T13:33:00;23.40;8.70
34572;DHT22;20808;48.974;8.452;2022-10-31T13:35:32;24.20;4.10
34572;DHT22;20808;48.974;8.452;2022-10-31T13:38:10;24.20;1.00
34572;DHT22;20808;48.974;8.452;2022-10-31T13:40:45;24.60;1.00
34572;DHT22;20808;48.974;8.452;2022-10-31T13:43:23;24.60;1.00
34572;DHT22;20808;48.974;8.452;2022-10-31T13:45:52;24.70;1.00
34572;DHT22;20808;48.974;8.452;2022-10-31T13:48:37;24.60;1.00
34572;DHT22;20808;48.974;8.452;2022-10-31T13:51:08;24.30;1.00
34572;DHT22;20808;48.974;8.452;2022-10-31T13:53:37;24.40;1.00
34572;DHT22;20808;48.974;8.452;2022-10-31T13:56:16;24.10;1.00
34572;DHT22;20808;48.974;8.452;2022-10-31T13:58:57;24.10;1.00
34572;DHT22;20808;48.974;8.452;2022-10-31T14:01:24;23.80;1.00
34572;DHT22;20808;48.974;8.452;2022-10-31T14:04:01;23.30;1.00
34572;DHT22;20808;48.974;8.452;2022-10-31T14:06:38;22.30;1.00
34572;DHT22;20808;48.974;8.452;2022-10-31T14:09:14;21.20;1.00
34572;DHT22;20808;48.974;8.452;2022-10-31T14:11:45;20.60;1.00
34572;DHT22;20808;48.974;8.452;2022-10-31T14:14:13;20.40;19.00
34572;DHT22;20808;48.974;8.452;2022-10-31T14:16:42;20.00;42.00
34572;DHT22;20808;48.974;8.452;2022-10-31T14:19:15;19.60;99.90
34572;DHT22;20808;48.974;8.452;2022-10-31T14:21:44;19.20;99.90
34572;DHT22;20808;48.974;8.452;2022-10-31T14:24:15;19.00;99.90
34572;DHT22;20808;48.974;8.452;2022-10-31T14:26:59;18.90;99.90
34572;DHT22;20808;48.974;8.452;2022-10-31T14:29:27;18.80;99.90
34572;DHT22;20808;48.974;8.452;2022-10-31T14:31:58;18.80;1.00
34572;DHT22;20808;48.974;8.452;2022-10-31T14:34:27;19.00;99.90
34572;DHT22;20808;48.974;8.452;2022-10-31T14:37:17;19.00;99.90
34572;DHT22;20808;48.974;8.452;2022-10-31T14:39:57;19.00;99.90
34572;DHT22;20808;48.974;8.452;2022-10-31T14:42:36;19.20;99.90
34572;DHT22;20808;48.974;8.452;2022-10-31T14:45:21;19.20;99.90
34572;DHT22;20808;48.974;8.452;2022-10-31T14:48:00;19.10;99.90
34572;DHT22;20808;48.974;8.452;2022-10-31T14:50:43;19.00;99.90
34572;DHT22;20808;48.974;8.452;2022-10-31T14:53:16;19.00;99.90
34572;DHT22;20808;48.974;8.452;2022-10-31T14:55:48;18.90;99.90
34572;DHT22;20808;48.974;8.452;2022-10-31T14:58:19;18.90;99.90
34572;DHT22;20808;48.974;8.452;2022-10-31T15:00:48;18.80;99.90
34572;DHT22;20808;48.974;8.452;2022-10-31T15:03:18;18.70;1.00
34572;DHT22;20808;48.974;8.452;2022-10-31T15:05:50;18.60;1.00
34572;DHT22;20808;48.974;8.452;2022-10-31T15:08:32;18.40;99.50
34572;DHT22;20808;48.974;8.452;2022-10-31T15:11:03;18.30;99.90
34572;DHT22;20808;48.974;8.452;2022-10-31T15:13:31;18.10;1.00
34572;DHT22;20808;48.974;8.452;2022-10-31T15:15:58;18.00;1.00
34572;DHT22;20808;48.974;8.452;2022-10-31T15:18:26;18.00;99.90
34572;DHT22;20808;48.974;8.452;2022-10-31T15:20:55;17.90;1.00
34572;DHT22;20808;48.974;8.452;2022-10-31T15:23:24;17.70;1.00
34572;DHT22;20808;48.974;8.452;2022-10-31T15:25:58;17.50;1.00
34572;DHT22;20808;48.974;8.452;2022-10-31T15:28:25;17.30;99.90
34572;DHT22;20808;48.974;8.452;2022-10-31T15:30:55;17.30;1.00
34572;DHT22;20808;48.974;8.452;2022-10-31T15:33:24;17.10;1.00
34572;DHT22;20808;48.974;8.452;2022-10-31T15:35:56;17.00;1.00
34572;DHT22;20808;48.974;8.452;2022-10-31T15:38:24;17.00;1.00
34572;DHT22;20808;48.974;8.452;2022-10-31T15:40:54;17.00;99.90
34572;DHT22;20808;48.974;8.452;2022-10-31T15:43:21;16.90;1.00
34572;DHT22;20808;48.974;8.452;2022-10-31T15:45:48;16.80;99.90
34572;DHT22;20808;48.974;8.452;2022-10-31T15:48:18;16.70;1.00
34572;DHT22;20808;48.974;8.452;2022-10-31T15:50:49;16.70;99.90
34572;DHT22;20808;48.974;8.452;2022-10-31T15:53:18;16.60;1.00
34572;DHT22;20808;48.974;8.452;2022-10-31T15:55:48;16.60;1.00
34572;DHT22;20808;48.974;8.452;2022-10-31T15:58:17;16.50;1.00
34572;DHT22;20808;48.974;8.452;2022-10-31T16:00:44;16.40;1.00